East Eldorado, Illinois
Current Conditions -  °F | °C
As of 2:15 PM on Sunday 25 Jan 2015 (Local Time) from KHSB Reporting Station
Moderate Rain Moderate Rain  
Wind Chill: 39°   Ceiling: 700
Heat Index: 42°   Visibility: 7mi
Dew Point: 42°   Wind: 5mph
Humidity: 100%   Direction: 200°SSW
Pressure: 29.58"   Gusts: NA
Location:  37.8101°N, 88.4411°W
Report Text: KHSB 252015Z AUTO 20004KT 7SM RA OVC007 06/06 A2958 RMK AO2 P0001 T00560056
Loading
Personal Weather Stations






























Interactive Weather Map New forecast layout! Learn more

10-Day Weather Forecast

Advertisements
Track Severe Weather on mobile